sensor_id;sensor_type;location;lat;lon;timestamp;P1;durP1;ratioP1;P2;durP2;ratioP2
59653;SDS011;66556;52.008;5.432;2023-04-25T00:00:47;22.1;;;5.7;;
59653;SDS011;66556;52.008;5.432;2023-04-25T00:02:24;18.3;;;4.8;;
59653;SDS011;66556;52.008;5.432;2023-04-25T00:04:00;19.0;;;4.91;;
59653;SDS011;66556;52.008;5.432;2023-04-25T00:07:13;22.1;;;5.7;;
59653;SDS011;66556;52.008;5.432;2023-04-25T00:08:49;23.4;;;5.2;;
59653;SDS011;66556;52.008;5.432;2023-04-25T00:10:25;23.3;;;5.5;;
59653;SDS011;66556;52.008;5.432;2023-04-25T00:13:37;24.4;;;5.5;;
59653;SDS011;66556;52.008;5.432;2023-04-25T00:15:14;25.0;;;5.7;;
59653;SDS011;66556;52.008;5.432;2023-04-25T00:16:50;21.8;;;5.5;;
59653;SDS011;66556;52.008;5.432;2023-04-25T00:20:02;21.8;;;5.5;;
59653;SDS011;66556;52.008;5.432;2023-04-25T00:21:38;21.4;;;5.4;;
59653;SDS011;66556;52.008;5.432;2023-04-25T00:23:15;16.0;;;4.61;;
59653;SDS011;66556;52.008;5.432;2023-04-25T00:24:51;22.1;;;5.3;;
59653;SDS011;66556;52.008;5.432;2023-04-25T00:28:05;21.1;;;5.8;;
59653;SDS011;66556;52.008;5.432;2023-04-25T00:29:41;21.4;;;5.9;;
59653;SDS011;66556;52.008;5.432;2023-04-25T00:31:17;23.7;;;5.9;;
59653;SDS011;66556;52.008;5.432;2023-04-25T00:34:29;24.3;;;5.3;;
59653;SDS011;66556;52.008;5.432;2023-04-25T00:36:06;21.9;;;5.8;;
59653;SDS011;66556;52.008;5.432;2023-04-25T00:37:42;24.2;;;5.6;;
59653;SDS011;66556;52.008;5.432;2023-04-25T00:40:56;28.1;;;6.3;;
59653;SDS011;66556;52.008;5.432;2023-04-25T00:42:32;20.3;;;5.11;;
59653;SDS011;66556;52.008;5.432;2023-04-25T00:44:08;24.9;;;5.7;;
59653;SDS011;66556;52.008;5.432;2023-04-25T00:47:23;22.8;;;5.8;;
59653;SDS011;66556;52.008;5.432;2023-04-25T00:49:00;26.7;;;5.9;;
59653;SDS011;66556;52.008;5.432;2023-04-25T00:50:36;21.1;;;5.7;;
59653;SDS011;66556;52.008;5.432;2023-04-25T00:52:13;23.2;;;5.6;;
59653;SDS011;66556;52.008;5.432;2023-04-25T00:55:27;19.8;;;5.2;;
59653;SDS011;66556;52.008;5.432;2023-04-25T00:57:03;24.2;;;6.1;;
59653;SDS011;66556;52.008;5.432;2023-04-25T00:58:39;22.5;;;5.0;;
59653;SDS011;66556;52.008;5.432;2023-04-25T01:01:53;19.61;;;5.0;;
59653;SDS011;66556;52.008;5.432;2023-04-25T01:03:30;22.3;;;5.4;;
59653;SDS011;66556;52.008;5.432;2023-04-25T01:05:09;20.5;;;5.11;;
59653;SDS011;66556;52.008;5.432;2023-04-25T01:06:45;20.5;;;5.11;;
59653;SDS011;66556;52.008;5.432;2023-04-25T01:09:59;20.41;;;4.61;;
59653;SDS011;66556;52.008;5.432;2023-04-25T01:11:35;21.3;;;5.0;;
59653;SDS011;66556;52.008;5.432;2023-04-25T01:13:11;16.8;;;4.2;;
59653;SDS011;66556;52.008;5.432;2023-04-25T01:16:23;22.7;;;4.5;;
59653;SDS011;66556;52.008;5.432;2023-04-25T01:18:00;20.7;;;4.3;;
59653;SDS011;66556;52.008;5.432;2023-04-25T01:19:36;20.2;;;4.41;;
59653;SDS011;66556;52.008;5.432;2023-04-25T01:22:49;19.5;;;4.7;;
59653;SDS011;66556;52.008;5.432;2023-04-25T01:24:26;19.11;;;4.5;;
59653;SDS011;66556;52.008;5.432;2023-04-25T01:26:03;19.3;;;4.91;;
59653;SDS011;66556;52.008;5.432;2023-04-25T01:27:41;21.4;;;5.11;;
59653;SDS011;66556;52.008;5.432;2023-04-25T01:30:55;18.5;;;4.8;;
59653;SDS011;66556;52.008;5.432;2023-04-25T01:32:32;21.8;;;4.91;;
59653;SDS011;66556;52.008;5.432;2023-04-25T01:34:09;17.0;;;4.5;;
59653;SDS011;66556;52.008;5.432;2023-04-25T01:37:22;19.41;;;4.8;;
59653;SDS011;66556;52.008;5.432;2023-04-25T01:38:58;21.5;;;5.11;;
59653;SDS011;66556;52.008;5.432;2023-04-25T01:40:36;20.41;;;4.8;;
59653;SDS011;66556;52.008;5.432;2023-04-25T01:42:16;21.2;;;4.91;;
59653;SDS011;66556;52.008;5.432;2023-04-25T01:45:30;18.41;;;4.61;;
59653;SDS011;66556;52.008;5.432;2023-04-25T01:47:06;16.8;;;4.3;;
59653;SDS011;66556;52.008;5.432;2023-04-25T01:48:42;24.9;;;4.91;;
59653;SDS011;66556;52.008;5.432;2023-04-25T01:51:54;17.61;;;4.61;;
59653;SDS011;66556;52.008;5.432;2023-04-25T01:53:31;19.41;;;4.61;;
59653;SDS011;66556;52.008;5.432;2023-04-25T01:55:07;20.5;;;4.91;;
59653;SDS011;66556;52.008;5.432;2023-04-25T01:58:26;19.8;;;5.0;;
59653;SDS011;66556;52.008;5.432;2023-04-25T02:00:03;18.0;;;5.11;;
59653;SDS011;66556;52.008;5.432;2023-04-25T02:01:42;22.5;;;5.4;;
59653;SDS011;66556;52.008;5.432;2023-04-25T02:03:18;17.7;;;4.7;;
59653;SDS011;66556;52.008;5.432;2023-04-25T02:06:30;23.0;;;5.2;;
59653;SDS011;66556;52.008;5.432;2023-04-25T02:08:07;23.0;;;5.2;;
59653;SDS011;66556;52.008;5.432;2023-04-25T02:09:45;19.41;;;5.0;;
59653;SDS011;66556;52.008;5.432;2023-04-25T02:12:57;18.61;;;5.4;;
59653;SDS011;66556;52.008;5.432;2023-04-25T02:14:33;16.61;;;4.8;;
59653;SDS011;66556;52.008;5.432;2023-04-25T02:16:09;21.5;;;5.2;;
59653;SDS011;66556;52.008;5.432;2023-04-25T02:19:21;15.9;;;5.5;;
59653;SDS011;66556;52.008;5.432;2023-04-25T02:20:58;23.5;;;5.7;;
59653;SDS011;66556;52.008;5.432;2023-04-25T02:22:35;19.8;;;5.5;;
59653;SDS011;66556;52.008;5.432;2023-04-25T02:24:11;19.8;;;5.6;;
59653;SDS011;66556;52.008;5.432;2023-04-25T02:27:24;19.41;;;5.5;;
59653;SDS011;66556;52.008;5.432;2023-04-25T02:29:01;18.11;;;5.6;;
59653;SDS011;66556;52.008;5.432;2023-04-25T02:30:36;22.4;;;6.0;;
59653;SDS011;66556;52.008;5.432;2023-04-25T02:33:49;19.8;;;5.8;;
59653;SDS011;66556;52.008;5.432;2023-04-25T02:35:26;24.2;;;6.3;;
59653;SDS011;66556;52.008;5.432;2023-04-25T02:37:02;15.3;;;4.7;;
59653;SDS011;66556;52.008;5.432;2023-04-25T02:40:15;23.7;;;5.8;;
59653;SDS011;66556;52.008;5.432;2023-04-25T02:41:52;17.11;;;5.8;;
59653;SDS011;66556;52.008;5.432;2023-04-25T02:43:27;22.2;;;5.7;;
59653;SDS011;66556;52.008;5.432;2023-04-25T02:45:04;22.6;;;6.3;;
59653;SDS011;66556;52.008;5.432;2023-04-25T02:48:17;21.6;;;6.0;;
59653;SDS011;66556;52.008;5.432;2023-04-25T02:49:53;18.3;;;5.2;;
59653;SDS011;66556;52.008;5.432;2023-04-25T02:51:29;19.11;;;5.9;;
59653;SDS011;66556;52.008;5.432;2023-04-25T02:54:41;21.8;;;6.6;;
59653;SDS011;66556;52.008;5.432;2023-04-25T02:56:17;19.3;;;6.2;;
59653;SDS011;66556;52.008;5.432;2023-04-25T02:57:54;18.2;;;5.8;;
59653;SDS011;66556;52.008;5.432;2023-04-25T03:01:06;20.0;;;6.2;;
59653;SDS011;66556;52.008;5.432;2023-04-25T03:02:42;17.41;;;5.4;;
59653;SDS011;66556;52.008;5.432;2023-04-25T03:04:18;17.11;;;5.5;;
59653;SDS011;66556;52.008;5.432;2023-04-25T03:07:30;16.61;;;5.5;;
59653;SDS011;66556;52.008;5.432;2023-04-25T03:09:06;17.3;;;5.6;;
59653;SDS011;66556;52.008;5.432;2023-04-25T03:10:43;21.0;;;6.2;;
59653;SDS011;66556;52.008;5.432;2023-04-25T03:12:20;21.2;;;6.1;;
59653;SDS011;66556;52.008;5.432;2023-04-25T03:15:32;16.2;;;5.6;;
59653;SDS011;66556;52.008;5.432;2023-04-25T03:17:08;19.91;;;6.3;;
59653;SDS011;66556;52.008;5.432;2023-04-25T03:18:44;21.5;;;6.6;;
59653;SDS011;66556;52.008;5.432;2023-04-25T03:21:56;20.41;;;6.4;;
59653;SDS011;66556;52.008;5.432;2023-04-25T03:23:32;23.0;;;6.8;;
59653;SDS011;66556;52.008;5.432;2023-04-25T03:25:09;17.2;;;5.8;;
59653;SDS011;66556;52.008;5.432;2023-04-25T03:28:21;19.0;;;5.7;;
59653;SDS011;66556;52.008;5.432;2023-04-25T03:29:58;16.7;;;5.9;;
59653;SDS011;66556;52.008;5.432;2023-04-25T03:31:34;17.3;;;6.2;;
59653;SDS011;66556;52.008;5.432;2023-04-25T03:33:10;17.61;;;5.4;;
59653;SDS011;66556;52.008;5.432;2023-04-25T03:36:22;20.9;;;6.1;;
59653;SDS011;66556;52.008;5.432;2023-04-25T03:37:59;23.5;;;6.5;;
59653;SDS011;66556;52.008;5.432;2023-04-25T03:39:35;21.7;;;6.1;;
59653;SDS011;66556;52.008;5.432;2023-04-25T03:42:48;19.41;;;6.4;;
59653;SDS011;66556;52.008;5.432;2023-04-25T03:44:24;17.91;;;6.3;;
59653;SDS011;66556;52.008;5.432;2023-04-25T03:46:00;20.11;;;7.0;;
59653;SDS011;66556;52.008;5.432;2023-04-25T03:49:12;16.61;;;6.6;;
59653;SDS011;66556;52.008;5.432;2023-04-25T03:50:49;12.3;;;5.7;;
59653;SDS011;66556;52.008;5.432;2023-04-25T03:52:25;26.8;;;7.7;;
59653;SDS011;66556;52.008;5.432;2023-04-25T03:55:37;23.9;;;8.5;;
59653;SDS011;66556;52.008;5.432;2023-04-25T03:57:13;26.3;;;9.21;;
59653;SDS011;66556;52.008;5.432;2023-04-25T03:58:49;23.2;;;9.1;;
59653;SDS011;66556;52.008;5.432;2023-04-25T04:00:25;23.6;;;9.1;;
59653;SDS011;66556;52.008;5.432;2023-04-25T04:03:37;27.7;;;8.81;;
59653;SDS011;66556;52.008;5.432;2023-04-25T04:05:14;26.6;;;9.4;;
59653;SDS011;66556;52.008;5.432;2023-04-25T04:06:50;26.4;;;8.71;;
59653;SDS011;66556;52.008;5.432;2023-04-25T04:10:02;24.3;;;8.4;;
59653;SDS011;66556;52.008;5.432;2023-04-25T04:11:38;25.0;;;8.81;;
59653;SDS011;66556;52.008;5.432;2023-04-25T04:13:14;27.3;;;8.81;;
59653;SDS011;66556;52.008;5.432;2023-04-25T04:16:27;24.2;;;7.4;;
59653;SDS011;66556;52.008;5.432;2023-04-25T04:18:03;23.4;;;7.9;;
59653;SDS011;66556;52.008;5.432;2023-04-25T04:19:39;23.3;;;8.1;;
59653;SDS011;66556;52.008;5.432;2023-04-25T04:21:15;24.3;;;7.7;;
59653;SDS011;66556;52.008;5.432;2023-04-25T04:24:27;21.4;;;6.9;;
59653;SDS011;66556;52.008;5.432;2023-04-25T04:26:03;22.0;;;7.2;;
59653;SDS011;66556;52.008;5.432;2023-04-25T04:27:40;19.91;;;6.9;;
59653;SDS011;66556;52.008;5.432;2023-04-25T04:30:53;20.9;;;6.7;;
59653;SDS011;66556;52.008;5.432;2023-04-25T04:32:29;21.4;;;6.3;;
59653;SDS011;66556;52.008;5.432;2023-04-25T04:34:05;22.7;;;5.5;;
59653;SDS011;66556;52.008;5.432;2023-04-25T04:37:18;22.0;;;5.9;;
59653;SDS011;66556;52.008;5.432;2023-04-25T04:38:53;17.91;;;5.2;;
59653;SDS011;66556;52.008;5.432;2023-04-25T04:40:30;18.2;;;5.5;;
59653;SDS011;66556;52.008;5.432;2023-04-25T04:43:42;17.5;;;5.4;;
59653;SDS011;66556;52.008;5.432;2023-04-25T04:45:19;20.9;;;5.11;;
59653;SDS011;66556;52.008;5.432;2023-04-25T04:46:55;19.8;;;5.11;;
59653;SDS011;66556;52.008;5.432;2023-04-25T04:48:32;22.3;;;5.11;;
59653;SDS011;66556;52.008;5.432;2023-04-25T04:51:46;17.2;;;5.11;;
59653;SDS011;66556;52.008;5.432;2023-04-25T04:53:22;14.9;;;4.91;;
59653;SDS011;66556;52.008;5.432;2023-04-25T04:54:58;15.0;;;4.61;;
59653;SDS011;66556;52.008;5.432;2023-04-25T04:58:11;16.7;;;4.61;;
59653;SDS011;66556;52.008;5.432;2023-04-25T04:59:47;16.8;;;4.1;;
59653;SDS011;66556;52.008;5.432;2023-04-25T05:01:23;17.0;;;4.2;;
59653;SDS011;66556;52.008;5.432;2023-04-25T05:04:36;16.3;;;3.9;;
59653;SDS011;66556;52.008;5.432;2023-04-25T05:06:12;19.5;;;4.3;;
59653;SDS011;66556;52.008;5.432;2023-04-25T05:07:48;16.61;;;3.7;;
59653;SDS011;66556;52.008;5.432;2023-04-25T05:09:25;17.41;;;3.9;;
59653;SDS011;66556;52.008;5.432;2023-04-25T05:12:38;12.4;;;3.6;;
59653;SDS011;66556;52.008;5.432;2023-04-25T05:14:14;17.5;;;4.0;;
59653;SDS011;66556;52.008;5.432;2023-04-25T05:19:03;12.9;;;3.5;;
59653;SDS011;66556;52.008;5.432;2023-04-25T05:20:39;19.5;;;4.2;;
59653;SDS011;66556;52.008;5.432;2023-04-25T05:22:15;15.8;;;3.9;;
59653;SDS011;66556;52.008;5.432;2023-04-25T05:25:27;15.2;;;3.5;;
59653;SDS011;66556;52.008;5.432;2023-04-25T05:27:03;15.3;;;3.3;;
59653;SDS011;66556;52.008;5.432;2023-04-25T05:28:39;13.7;;;3.3;;
59653;SDS011;66556;52.008;5.432;2023-04-25T05:31:52;12.8;;;3.3;;
59653;SDS011;66556;52.008;5.432;2023-04-25T05:33:28;13.6;;;3.3;;
59653;SDS011;66556;52.008;5.432;2023-04-25T05:35:04;15.9;;;3.5;;
59653;SDS011;66556;52.008;5.432;2023-04-25T05:36:41;17.5;;;3.9;;
59653;SDS011;66556;52.008;5.432;2023-04-25T05:39:53;14.6;;;3.2;;
59653;SDS011;66556;52.008;5.432;2023-04-25T05:41:29;13.3;;;3.3;;
59653;SDS011;66556;52.008;5.432;2023-04-25T05:43:05;15.3;;;3.5;;
59653;SDS011;66556;52.008;5.432;2023-04-25T05:46:18;14.3;;;3.1;;
59653;SDS011;66556;52.008;5.432;2023-04-25T05:47:54;15.2;;;3.1;;
59653;SDS011;66556;52.008;5.432;2023-04-25T05:49:30;13.9;;;3.2;;
59653;SDS011;66556;52.008;5.432;2023-04-25T05:52:43;13.9;;;3.2;;
59653;SDS011;66556;52.008;5.432;2023-04-25T05:54:20;13.7;;;2.7;;
59653;SDS011;66556;52.008;5.432;2023-04-25T05:55:55;8.6;;;2.5;;
59653;SDS011;66556;52.008;5.432;2023-04-25T05:57:31;12.3;;;2.6;;
59653;SDS011;66556;52.008;5.432;2023-04-25T06:00:43;12.5;;;2.5;;
59653;SDS011;66556;52.008;5.432;2023-04-25T06:02:19;10.3;;;2.6;;
59653;SDS011;66556;52.008;5.432;2023-04-25T06:03:57;11.3;;;2.7;;
59653;SDS011;66556;52.008;5.432;2023-04-25T06:07:09;14.1;;;2.6;;
59653;SDS011;66556;52.008;5.432;2023-04-25T06:08:45;13.3;;;2.6;;
59653;SDS011;66556;52.008;5.432;2023-04-25T06:10:21;11.5;;;2.7;;
59653;SDS011;66556;52.008;5.432;2023-04-25T06:13:33;13.1;;;2.5;;
59653;SDS011;66556;52.008;5.432;2023-04-25T06:15:10;13.4;;;3.0;;
59653;SDS011;66556;52.008;5.432;2023-04-25T06:16:46;15.7;;;2.8;;
59653;SDS011;66556;52.008;5.432;2023-04-25T06:19:58;12.1;;;2.6;;
59653;SDS011;66556;52.008;5.432;2023-04-25T06:21:34;14.1;;;2.8;;
59653;SDS011;66556;52.008;5.432;2023-04-25T06:23:10;11.7;;;2.31;;
59653;SDS011;66556;52.008;5.432;2023-04-25T06:24:47;13.6;;;2.6;;
59653;SDS011;66556;52.008;5.432;2023-04-25T06:28:00;11.6;;;2.31;;
59653;SDS011;66556;52.008;5.432;2023-04-25T06:29:36;18.41;;;3.3;;
59653;SDS011;66556;52.008;5.432;2023-04-25T06:31:12;15.1;;;2.7;;
59653;SDS011;66556;52.008;5.432;2023-04-25T06:34:24;16.11;;;3.0;;
59653;SDS011;66556;52.008;5.432;2023-04-25T06:36:00;10.4;;;2.31;;
59653;SDS011;66556;52.008;5.432;2023-04-25T06:37:36;21.3;;;2.9;;
59653;SDS011;66556;52.008;5.432;2023-04-25T06:40:49;14.3;;;2.5;;
59653;SDS011;66556;52.008;5.432;2023-04-25T06:42:25;14.0;;;2.7;;
59653;SDS011;66556;52.008;5.432;2023-04-25T06:44:01;11.0;;;2.4;;
59653;SDS011;66556;52.008;5.432;2023-04-25T06:45:37;15.3;;;2.8;;
59653;SDS011;66556;52.008;5.432;2023-04-25T06:48:51;13.9;;;2.6;;
59653;SDS011;66556;52.008;5.432;2023-04-25T06:50:26;12.3;;;2.5;;
59653;SDS011;66556;52.008;5.432;2023-04-25T06:52:03;13.5;;;2.4;;
59653;SDS011;66556;52.008;5.432;2023-04-25T06:55:16;13.2;;;2.9;;
59653;SDS011;66556;52.008;5.432;2023-04-25T06:56:52;13.2;;;2.9;;
59653;SDS011;66556;52.008;5.432;2023-04-25T06:58:28;14.9;;;2.8;;
59653;SDS011;66556;52.008;5.432;2023-04-25T07:01:44;13.8;;;2.4;;
59653;SDS011;66556;52.008;5.432;2023-04-25T07:03:20;10.7;;;2.4;;
59653;SDS011;66556;52.008;5.432;2023-04-25T07:04:56;14.3;;;2.7;;
59653;SDS011;66556;52.008;5.432;2023-04-25T07:06:33;12.6;;;2.6;;
59653;SDS011;66556;52.008;5.432;2023-04-25T07:09:45;10.1;;;2.1;;
59653;SDS011;66556;52.008;5.432;2023-04-25T07:11:21;15.1;;;3.2;;
59653;SDS011;66556;52.008;5.432;2023-04-25T07:12:57;11.6;;;2.4;;
59653;SDS011;66556;52.008;5.432;2023-04-25T07:16:09;12.1;;;2.7;;
59653;SDS011;66556;52.008;5.432;2023-04-25T07:17:46;12.1;;;2.31;;
59653;SDS011;66556;52.008;5.432;2023-04-25T07:19:22;14.8;;;2.6;;
59653;SDS011;66556;52.008;5.432;2023-04-25T07:22:34;12.8;;;2.5;;
59653;SDS011;66556;52.008;5.432;2023-04-25T07:24:10;12.9;;;2.4;;
59653;SDS011;66556;52.008;5.432;2023-04-25T07:25:46;10.0;;;2.21;;
59653;SDS011;66556;52.008;5.432;2023-04-25T07:28:58;14.7;;;2.4;;
59653;SDS011;66556;52.008;5.432;2023-04-25T07:30:35;9.6;;;2.31;;
59653;SDS011;66556;52.008;5.432;2023-04-25T07:32:11;13.9;;;2.4;;
59653;SDS011;66556;52.008;5.432;2023-04-25T07:33:47;11.7;;;2.6;;
59653;SDS011;66556;52.008;5.432;2023-04-25T07:36:59;12.4;;;2.6;;
59653;SDS011;66556;52.008;5.432;2023-04-25T07:38:35;10.0;;;2.21;;
59653;SDS011;66556;52.008;5.432;2023-04-25T07:40:12;12.2;;;2.4;;
59653;SDS011;66556;52.008;5.432;2023-04-25T07:43:25;12.9;;;2.1;;
59653;SDS011;66556;52.008;5.432;2023-04-25T07:45:01;16.2;;;2.6;;
59653;SDS011;66556;52.008;5.432;2023-04-25T07:46:37;16.5;;;2.8;;
59653;SDS011;66556;52.008;5.432;2023-04-25T07:49:53;9.6;;;2.1;;
59653;SDS011;66556;52.008;5.432;2023-04-25T07:51:29;8.9;;;2.1;;
59653;SDS011;66556;52.008;5.432;2023-04-25T07:53:05;9.31;;;2.1;;
59653;SDS011;66556;52.008;5.432;2023-04-25T07:54:41;8.71;;;2.0;;
59653;SDS011;66556;52.008;5.432;2023-04-25T07:57:54;10.0;;;2.0;;
59653;SDS011;66556;52.008;5.432;2023-04-25T07:59:30;12.2;;;2.0;;
59653;SDS011;66556;52.008;5.432;2023-04-25T08:01:06;8.71;;;1.9;;
59653;SDS011;66556;52.008;5.432;2023-04-25T08:04:18;8.71;;;1.9;;
59653;SDS011;66556;52.008;5.432;2023-04-25T08:05:54;9.21;;;1.9;;
59653;SDS011;66556;52.008;5.432;2023-04-25T08:07:30;9.5;;;1.7;;
59653;SDS011;66556;52.008;5.432;2023-04-25T08:10:43;7.7;;;1.7;;
59653;SDS011;66556;52.008;5.432;2023-04-25T08:12:19;6.7;;;1.5;;
59653;SDS011;66556;52.008;5.432;2023-04-25T08:13:55;8.81;;;1.6;;
59653;SDS011;66556;52.008;5.432;2023-04-25T08:17:07;7.9;;;1.7;;
59653;SDS011;66556;52.008;5.432;2023-04-25T08:18:44;9.71;;;1.9;;
59653;SDS011;66556;52.008;5.432;2023-04-25T08:20:21;8.4;;;2.1;;
59653;SDS011;66556;52.008;5.432;2023-04-25T08:21:57;10.6;;;2.0;;
59653;SDS011;66556;52.008;5.432;2023-04-25T08:25:09;10.3;;;2.0;;
59653;SDS011;66556;52.008;5.432;2023-04-25T08:26:45;11.8;;;1.9;;
59653;SDS011;66556;52.008;5.432;2023-04-25T08:28:21;5.9;;;1.6;;
59653;SDS011;66556;52.008;5.432;2023-04-25T08:31:33;8.4;;;1.9;;
59653;SDS011;66556;52.008;5.432;2023-04-25T08:33:10;9.81;;;2.0;;
59653;SDS011;66556;52.008;5.432;2023-04-25T08:34:46;7.4;;;1.8;;
59653;SDS011;66556;52.008;5.432;2023-04-25T08:37:58;9.5;;;2.1;;
59653;SDS011;66556;52.008;5.432;2023-04-25T08:39:34;10.9;;;1.9;;
59653;SDS011;66556;52.008;5.432;2023-04-25T08:41:10;11.4;;;2.21;;
59653;SDS011;66556;52.008;5.432;2023-04-25T08:42:47;11.4;;;1.9;;
59653;SDS011;66556;52.008;5.432;2023-04-25T08:46:02;10.5;;;2.0;;
59653;SDS011;66556;52.008;5.432;2023-04-25T08:47:38;6.2;;;1.7;;
59653;SDS011;66556;52.008;5.432;2023-04-25T08:49:15;6.3;;;1.8;;
59653;SDS011;66556;52.008;5.432;2023-04-25T08:52:34;8.81;;;2.0;;
59653;SDS011;66556;52.008;5.432;2023-04-25T08:54:13;7.1;;;1.5;;
59653;SDS011;66556;52.008;5.432;2023-04-25T08:55:50;7.9;;;1.8;;
59653;SDS011;66556;52.008;5.432;2023-04-25T08:57:29;7.6;;;1.5;;
59653;SDS011;66556;52.008;5.432;2023-04-25T09:00:43;4.91;;;1.2;;
59653;SDS011;66556;52.008;5.432;2023-04-25T09:02:21;4.7;;;1.2;;
59653;SDS011;66556;52.008;5.432;2023-04-25T09:03:57;5.9;;;1.2;;
59653;SDS011;66556;52.008;5.432;2023-04-25T09:07:10;6.1;;;1.2;;
59653;SDS011;66556;52.008;5.432;2023-04-25T09:08:49;6.0;;;1.6;;
59653;SDS011;66556;52.008;5.432;2023-04-25T09:10:26;6.4;;;1.4;;
59653;SDS011;66556;52.008;5.432;2023-04-25T09:12:03;8.9;;;1.4;;
59653;SDS011;66556;52.008;5.432;2023-04-25T09:15:16;5.0;;;1.3;;
59653;SDS011;66556;52.008;5.432;2023-04-25T09:17:00;5.2;;;1.2;;
59653;SDS011;66556;52.008;5.432;2023-04-25T09:18:37;4.91;;;1.4;;
59653;SDS011;66556;52.008;5.432;2023-04-25T09:21:50;5.4;;;1.3;;
59653;SDS011;66556;52.008;5.432;2023-04-25T09:23:26;6.3;;;1.4;;
59653;SDS011;66556;52.008;5.432;2023-04-25T09:25:04;7.3;;;1.3;;
59653;SDS011;66556;52.008;5.432;2023-04-25T09:26:44;6.6;;;1.3;;
59653;SDS011;66556;52.008;5.432;2023-04-25T09:30:00;9.0;;;1.4;;
59653;SDS011;66556;52.008;5.432;2023-04-25T09:31:36;11.1;;;1.3;;
59653;SDS011;66556;52.008;5.432;2023-04-25T09:33:12;6.2;;;1.2;;
59653;SDS011;66556;52.008;5.432;2023-04-25T09:36:29;6.3;;;1.4;;
59653;SDS011;66556;52.008;5.432;2023-04-25T09:38:07;5.11;;;1.3;;
59653;SDS011;66556;52.008;5.432;2023-04-25T09:39:44;7.2;;;1.5;;
59653;SDS011;66556;52.008;5.432;2023-04-25T09:41:22;5.8;;;1.4;;
59653;SDS011;66556;52.008;5.432;2023-04-25T09:44:36;7.6;;;1.6;;
59653;SDS011;66556;52.008;5.432;2023-04-25T09:46:12;6.5;;;1.3;;
59653;SDS011;66556;52.008;5.432;2023-04-25T09:47:48;5.4;;;1.4;;
59653;SDS011;66556;52.008;5.432;2023-04-25T09:51:03;8.0;;;1.8;;
59653;SDS011;66556;52.008;5.432;2023-04-25T09:52:42;7.0;;;1.8;;
59653;SDS011;66556;52.008;5.432;2023-04-25T09:54:19;6.7;;;1.7;;
59653;SDS011;66556;52.008;5.432;2023-04-25T09:57:32;7.0;;;1.5;;
59653;SDS011;66556;52.008;5.432;2023-04-25T09:59:08;7.5;;;1.4;;
59653;SDS011;66556;52.008;5.432;2023-04-25T10:00:46;6.1;;;1.3;;
59653;SDS011;66556;52.008;5.432;2023-04-25T10:02:24;5.0;;;1.5;;
59653;SDS011;66556;52.008;5.432;2023-04-25T10:05:42;8.1;;;1.6;;
59653;SDS011;66556;52.008;5.432;2023-04-25T10:07:19;9.71;;;1.8;;
59653;SDS011;66556;52.008;5.432;2023-04-25T10:08:57;7.1;;;1.5;;
59653;SDS011;66556;52.008;5.432;2023-04-25T10:12:12;17.7;;;2.31;;
59653;SDS011;66556;52.008;5.432;2023-04-25T10:13:48;8.71;;;1.5;;
59653;SDS011;66556;52.008;5.432;2023-04-25T10:15:26;6.5;;;1.7;;
59653;SDS011;66556;52.008;5.432;2023-04-25T10:17:03;8.1;;;1.6;;
59653;SDS011;66556;52.008;5.432;2023-04-25T10:20:15;10.0;;;2.0;;
59653;SDS011;66556;52.008;5.432;2023-04-25T10:21:52;12.2;;;1.9;;
59653;SDS011;66556;52.008;5.432;2023-04-25T10:23:34;9.71;;;2.1;;
59653;SDS011;66556;52.008;5.432;2023-04-25T10:26:48;7.3;;;2.0;;
59653;SDS011;66556;52.008;5.432;2023-04-25T10:28:26;5.2;;;1.5;;
59653;SDS011;66556;52.008;5.432;2023-04-25T10:30:02;9.0;;;1.9;;
59653;SDS011;66556;52.008;5.432;2023-04-25T10:31:44;6.5;;;1.5;;
59653;SDS011;66556;52.008;5.432;2023-04-25T10:35:11;6.7;;;1.6;;
59653;SDS011;66556;52.008;5.432;2023-04-25T10:36:50;11.6;;;2.0;;
59653;SDS011;66556;52.008;5.432;2023-04-25T10:38:27;9.4;;;1.8;;
59653;SDS011;66556;52.008;5.432;2023-04-25T10:40:07;6.9;;;1.4;;
59653;SDS011;66556;52.008;5.432;2023-04-25T10:43:37;9.1;;;1.7;;
59653;SDS011;66556;52.008;5.432;2023-04-25T10:45:15;7.9;;;1.7;;
59653;SDS011;66556;52.008;5.432;2023-04-25T10:46:51;12.0;;;2.4;;
59653;SDS011;66556;52.008;5.432;2023-04-25T10:48:28;7.5;;;1.5;;
59653;SDS011;66556;52.008;5.432;2023-04-25T10:51:43;15.1;;;4.41;;
59653;SDS011;66556;52.008;5.432;2023-04-25T10:53:19;13.7;;;3.2;;
59653;SDS011;66556;52.008;5.432;2023-04-25T10:55:00;8.0;;;1.6;;
59653;SDS011;66556;52.008;5.432;2023-04-25T10:56:40;5.8;;;1.4;;
59653;SDS011;66556;52.008;5.432;2023-04-25T11:00:00;9.81;;;1.8;;
59653;SDS011;66556;52.008;5.432;2023-04-25T11:01:41;7.3;;;2.0;;
59653;SDS011;66556;52.008;5.432;2023-04-25T11:03:21;6.4;;;1.6;;
59653;SDS011;66556;52.008;5.432;2023-04-25T11:06:43;7.8;;;1.7;;
59653;SDS011;66556;52.008;5.432;2023-04-25T11:08:36;7.6;;;1.3;;
59653;SDS011;66556;52.008;5.432;2023-04-25T11:10:26;5.3;;;1.3;;
59653;SDS011;66556;52.008;5.432;2023-04-25T11:12:03;8.1;;;1.3;;
59653;SDS011;66556;52.008;5.432;2023-04-25T11:13:40;5.6;;;1.2;;
59653;SDS011;66556;52.008;5.432;2023-04-25T11:16:53;3.7;;;1.2;;
59653;SDS011;66556;52.008;5.432;2023-04-25T11:18:29;6.8;;;1.6;;
59653;SDS011;66556;52.008;5.432;2023-04-25T11:20:05;7.9;;;1.6;;
59653;SDS011;66556;52.008;5.432;2023-04-25T11:21:43;8.5;;;1.7;;
59653;SDS011;66556;52.008;5.432;2023-04-25T11:24:55;7.0;;;1.6;;
59653;SDS011;66556;52.008;5.432;2023-04-25T11:26:31;5.2;;;1.3;;
59653;SDS011;66556;52.008;5.432;2023-04-25T11:28:07;6.3;;;1.4;;
59653;SDS011;66556;52.008;5.432;2023-04-25T11:31:20;5.2;;;1.4;;
59653;SDS011;66556;52.008;5.432;2023-04-25T11:32:57;6.9;;;1.6;;
59653;SDS011;66556;52.008;5.432;2023-04-25T11:34:34;9.71;;;1.6;;
59653;SDS011;66556;52.008;5.432;2023-04-25T11:37:46;5.3;;;1.3;;
59653;SDS011;66556;52.008;5.432;2023-04-25T11:39:23;5.9;;;1.4;;
59653;SDS011;66556;52.008;5.432;2023-04-25T11:41:00;5.3;;;1.3;;
59653;SDS011;66556;52.008;5.432;2023-04-25T11:44:15;5.5;;;1.5;;
59653;SDS011;66556;52.008;5.432;2023-04-25T11:45:53;5.8;;;1.6;;
59653;SDS011;66556;52.008;5.432;2023-04-25T11:47:29;8.71;;;2.1;;
59653;SDS011;66556;52.008;5.432;2023-04-25T11:49:05;8.81;;;1.4;;
59653;SDS011;66556;52.008;5.432;2023-04-25T11:53:53;8.4;;;1.6;;
59653;SDS011;66556;52.008;5.432;2023-04-25T11:55:29;7.6;;;1.7;;
59653;SDS011;66556;52.008;5.432;2023-04-25T11:58:57;6.6;;;1.3;;
59653;SDS011;66556;52.008;5.432;2023-04-25T12:00:37;6.0;;;1.4;;
59653;SDS011;66556;52.008;5.432;2023-04-25T12:02:24;5.9;;;1.3;;
59653;SDS011;66556;52.008;5.432;2023-04-25T12:04:17;7.5;;;1.7;;
59653;SDS011;66556;52.008;5.432;2023-04-25T12:05:54;4.3;;;1.3;;
59653;SDS011;66556;52.008;5.432;2023-04-25T12:09:16;4.41;;;1.11;;
59653;SDS011;66556;52.008;5.432;2023-04-25T12:10:55;7.1;;;1.4;;
59653;SDS011;66556;52.008;5.432;2023-04-25T12:12:32;7.0;;;1.3;;
59653;SDS011;66556;52.008;5.432;2023-04-25T12:14:08;6.6;;;1.3;;
59653;SDS011;66556;52.008;5.432;2023-04-25T12:17:20;6.3;;;1.2;;
59653;SDS011;66556;52.008;5.432;2023-04-25T12:18:58;5.11;;;1.4;;
59653;SDS011;66556;52.008;5.432;2023-04-25T12:20:34;8.9;;;1.5;;
59653;SDS011;66556;52.008;5.432;2023-04-25T12:23:56;8.2;;;1.5;;
59653;SDS011;66556;52.008;5.432;2023-04-25T12:25:34;5.5;;;1.2;;
59653;SDS011;66556;52.008;5.432;2023-04-25T12:27:14;3.8;;;1.0;;
59653;SDS011;66556;52.008;5.432;2023-04-25T12:28:51;4.8;;;1.3;;
59653;SDS011;66556;52.008;5.432;2023-04-25T12:32:03;7.4;;;1.4;;
59653;SDS011;66556;52.008;5.432;2023-04-25T12:33:39;8.81;;;1.6;;
59653;SDS011;66556;52.008;5.432;2023-04-25T12:35:15;5.9;;;1.6;;
59653;SDS011;66556;52.008;5.432;2023-04-25T12:38:29;6.8;;;1.11;;
59653;SDS011;66556;52.008;5.432;2023-04-25T12:40:07;3.9;;;1.2;;
59653;SDS011;66556;52.008;5.432;2023-04-25T12:41:44;3.9;;;1.11;;
59653;SDS011;66556;52.008;5.432;2023-04-25T12:43:21;5.0;;;1.11;;
59653;SDS011;66556;52.008;5.432;2023-04-25T12:46:33;19.61;;;1.4;;
59653;SDS011;66556;52.008;5.432;2023-04-25T12:48:10;5.5;;;1.11;;
59653;SDS011;66556;52.008;5.432;2023-04-25T12:49:46;4.91;;;1.11;;
59653;SDS011;66556;52.008;5.432;2023-04-25T12:52:58;3.3;;;0.8;;